sensor_id;sensor_type;location;lat;lon;timestamp;P1;durP1;ratioP1;P2;durP2;ratioP2
55316;SDS011;41178;48.956;8.130;2023-09-18T00:03:46;7.40;;;4.00;;
55316;SDS011;41178;48.956;8.130;2023-09-18T00:08:48;8.70;;;4.43;;
55316;SDS011;41178;48.956;8.130;2023-09-18T00:13:52;6.65;;;4.22;;
55316;SDS011;41178;48.956;8.130;2023-09-18T00:18:54;6.57;;;3.65;;
55316;SDS011;41178;48.956;8.130;2023-09-18T00:23:56;5.30;;;3.75;;
55316;SDS011;41178;48.956;8.130;2023-09-18T00:28:59;8.43;;;4.07;;
55316;SDS011;41178;48.956;8.130;2023-09-18T00:34:01;7.68;;;3.95;;
55316;SDS011;41178;48.956;8.130;2023-09-18T00:39:03;9.18;;;3.90;;
55316;SDS011;41178;48.956;8.130;2023-09-18T00:44:05;5.78;;;3.40;;
55316;SDS011;41178;48.956;8.130;2023-09-18T00:49:07;6.30;;;3.80;;
55316;SDS011;41178;48.956;8.130;2023-09-18T00:54:09;6.55;;;3.63;;
55316;SDS011;41178;48.956;8.130;2023-09-18T00:59:12;9.10;;;3.60;;
55316;SDS011;41178;48.956;8.130;2023-09-18T01:04:15;6.32;;;3.53;;
55316;SDS011;41178;48.956;8.130;2023-09-18T01:09:18;8.40;;;3.40;;
55316;SDS011;41178;48.956;8.130;2023-09-18T01:14:24;6.38;;;3.88;;
55316;SDS011;41178;48.956;8.130;2023-09-18T01:19:38;5.43;;;3.95;;
55316;SDS011;41178;48.956;8.130;2023-09-18T01:24:47;6.72;;;3.20;;
55316;SDS011;41178;48.956;8.130;2023-09-18T01:29:49;9.32;;;4.50;;
55316;SDS011;41178;48.956;8.130;2023-09-18T01:34:52;7.07;;;4.00;;
55316;SDS011;41178;48.956;8.130;2023-09-18T01:39:57;7.18;;;3.78;;
55316;SDS011;41178;48.956;8.130;2023-09-18T01:45:01;5.45;;;3.72;;
55316;SDS011;41178;48.956;8.130;2023-09-18T01:50:03;8.48;;;3.97;;
55316;SDS011;41178;48.956;8.130;2023-09-18T01:55:07;5.93;;;4.05;;
55316;SDS011;41178;48.956;8.130;2023-09-18T02:00:09;9.35;;;3.90;;
55316;SDS011;41178;48.956;8.130;2023-09-18T02:05:12;4.55;;;3.40;;
55316;SDS011;41178;48.956;8.130;2023-09-18T02:10:15;6.43;;;3.47;;
55316;SDS011;41178;48.956;8.130;2023-09-18T02:15:16;7.53;;;3.85;;
55316;SDS011;41178;48.956;8.130;2023-09-18T02:20:18;6.78;;;3.42;;
55316;SDS011;41178;48.956;8.130;2023-09-18T02:25:20;10.98;;;4.10;;
55316;SDS011;41178;48.956;8.130;2023-09-18T02:30:22;5.97;;;3.75;;
55316;SDS011;41178;48.956;8.130;2023-09-18T02:35:24;6.30;;;3.88;;
55316;SDS011;41178;48.956;8.130;2023-09-18T02:40:25;7.47;;;4.22;;
55316;SDS011;41178;48.956;8.130;2023-09-18T02:45:27;5.60;;;3.90;;
55316;SDS011;41178;48.956;8.130;2023-09-18T02:50:29;6.63;;;3.92;;
55316;SDS011;41178;48.956;8.130;2023-09-18T02:55:31;6.90;;;3.55;;
55316;SDS011;41178;48.956;8.130;2023-09-18T03:00:33;8.20;;;3.97;;
55316;SDS011;41178;48.956;8.130;2023-09-18T03:05:44;6.05;;;3.67;;
55316;SDS011;41178;48.956;8.130;2023-09-18T03:10:46;8.55;;;3.92;;
55316;SDS011;41178;48.956;8.130;2023-09-18T03:15:48;8.85;;;4.13;;
55316;SDS011;41178;48.956;8.130;2023-09-18T03:20:50;4.45;;;3.30;;
55316;SDS011;41178;48.956;8.130;2023-09-18T03:25:51;7.38;;;4.10;;
55316;SDS011;41178;48.956;8.130;2023-09-18T03:30:53;8.63;;;4.07;;
55316;SDS011;41178;48.956;8.130;2023-09-18T03:35:56;9.60;;;4.72;;
55316;SDS011;41178;48.956;8.130;2023-09-18T03:41:00;9.07;;;4.05;;
55316;SDS011;41178;48.956;8.130;2023-09-18T03:46:03;8.48;;;3.58;;
55316;SDS011;41178;48.956;8.130;2023-09-18T03:51:08;12.32;;;4.43;;
55316;SDS011;41178;48.956;8.130;2023-09-18T03:56:11;7.30;;;3.28;;
55316;SDS011;41178;48.956;8.130;2023-09-18T04:01:13;5.60;;;3.20;;
55316;SDS011;41178;48.956;8.130;2023-09-18T04:06:15;7.18;;;3.58;;
55316;SDS011;41178;48.956;8.130;2023-09-18T04:11:16;9.55;;;2.85;;
55316;SDS011;41178;48.956;8.130;2023-09-18T04:16:21;7.90;;;3.65;;
55316;SDS011;41178;48.956;8.130;2023-09-18T04:21:23;5.35;;;2.80;;
55316;SDS011;41178;48.956;8.130;2023-09-18T04:26:25;4.43;;;2.80;;
55316;SDS011;41178;48.956;8.130;2023-09-18T04:31:35;7.95;;;3.58;;
55316;SDS011;41178;48.956;8.130;2023-09-18T04:36:36;10.65;;;3.10;;
55316;SDS011;41178;48.956;8.130;2023-09-18T04:41:39;8.30;;;4.13;;
55316;SDS011;41178;48.956;8.130;2023-09-18T04:46:41;10.43;;;3.58;;
55316;SDS011;41178;48.956;8.130;2023-09-18T04:51:44;6.88;;;3.00;;
55316;SDS011;41178;48.956;8.130;2023-09-18T04:56:46;9.88;;;3.30;;
55316;SDS011;41178;48.956;8.130;2023-09-18T05:01:48;8.98;;;3.55;;
55316;SDS011;41178;48.956;8.130;2023-09-18T05:06:49;9.10;;;3.60;;
55316;SDS011;41178;48.956;8.130;2023-09-18T05:11:51;5.38;;;3.65;;
55316;SDS011;41178;48.956;8.130;2023-09-18T05:16:53;9.30;;;3.90;;
55316;SDS011;41178;48.956;8.130;2023-09-18T05:21:55;9.60;;;3.58;;
55316;SDS011;41178;48.956;8.130;2023-09-18T05:26:57;8.02;;;3.28;;
55316;SDS011;41178;48.956;8.130;2023-09-18T05:31:58;5.40;;;3.42;;
55316;SDS011;41178;48.956;8.130;2023-09-18T05:37:00;6.40;;;3.30;;
55316;SDS011;41178;48.956;8.130;2023-09-18T05:42:02;6.75;;;3.42;;
55316;SDS011;41178;48.956;8.130;2023-09-18T05:47:05;7.63;;;2.90;;
55316;SDS011;41178;48.956;8.130;2023-09-18T05:52:07;6.35;;;3.05;;
55316;SDS011;41178;48.956;8.130;2023-09-18T05:57:09;4.90;;;2.75;;
55316;SDS011;41178;48.956;8.130;2023-09-18T06:02:11;7.78;;;2.75;;
55316;SDS011;41178;48.956;8.130;2023-09-18T06:07:17;10.98;;;3.22;;
55316;SDS011;41178;48.956;8.130;2023-09-18T06:12:19;9.00;;;2.97;;
55316;SDS011;41178;48.956;8.130;2023-09-18T06:17:22;6.20;;;2.70;;
55316;SDS011;41178;48.956;8.130;2023-09-18T06:22:25;7.57;;;2.58;;
55316;SDS011;41178;48.956;8.130;2023-09-18T06:27:27;6.25;;;2.70;;
55316;SDS011;41178;48.956;8.130;2023-09-18T06:32:29;4.78;;;2.80;;
55316;SDS011;41178;48.956;8.130;2023-09-18T06:37:31;7.55;;;2.78;;
55316;SDS011;41178;48.956;8.130;2023-09-18T06:42:33;4.55;;;2.30;;
55316;SDS011;41178;48.956;8.130;2023-09-18T06:47:35;4.05;;;2.40;;
55316;SDS011;41178;48.956;8.130;2023-09-18T06:52:37;4.30;;;2.00;;
55316;SDS011;41178;48.956;8.130;2023-09-18T06:57:38;2.47;;;1.98;;
55316;SDS011;41178;48.956;8.130;2023-09-18T07:02:41;4.40;;;1.88;;
55316;SDS011;41178;48.956;8.130;2023-09-18T07:07:46;4.70;;;2.33;;
55316;SDS011;41178;48.956;8.130;2023-09-18T07:12:48;5.30;;;2.00;;
55316;SDS011;41178;48.956;8.130;2023-09-18T07:17:49;2.78;;;1.60;;
55316;SDS011;41178;48.956;8.130;2023-09-18T07:22:51;1.80;;;1.33;;
55316;SDS011;41178;48.956;8.130;2023-09-18T07:27:53;3.22;;;1.83;;
55316;SDS011;41178;48.956;8.130;2023-09-18T07:32:55;2.97;;;1.50;;
55316;SDS011;41178;48.956;8.130;2023-09-18T07:38:00;2.38;;;1.60;;
55316;SDS011;41178;48.956;8.130;2023-09-18T07:43:01;3.30;;;1.40;;
55316;SDS011;41178;48.956;8.130;2023-09-18T07:48:03;1.92;;;1.40;;
55316;SDS011;41178;48.956;8.130;2023-09-18T07:53:06;3.05;;;1.27;;
55316;SDS011;41178;48.956;8.130;2023-09-18T07:58:08;1.95;;;1.40;;
55316;SDS011;41178;48.956;8.130;2023-09-18T08:03:10;3.40;;;1.30;;
55316;SDS011;41178;48.956;8.130;2023-09-18T08:08:12;3.70;;;1.40;;
55316;SDS011;41178;48.956;8.130;2023-09-18T08:13:14;2.15;;;1.67;;
55316;SDS011;41178;48.956;8.130;2023-09-18T08:18:16;3.22;;;1.80;;
55316;SDS011;41178;48.956;8.130;2023-09-18T08:23:18;3.42;;;1.42;;
55316;SDS011;41178;48.956;8.130;2023-09-18T08:28:21;5.53;;;1.80;;
55316;SDS011;41178;48.956;8.130;2023-09-18T08:33:23;3.63;;;1.80;;
55316;SDS011;41178;48.956;8.130;2023-09-18T08:38:25;4.05;;;1.80;;
55316;SDS011;41178;48.956;8.130;2023-09-18T08:43:27;6.28;;;1.75;;
55316;SDS011;41178;48.956;8.130;2023-09-18T08:48:30;2.72;;;1.75;;
55316;SDS011;41178;48.956;8.130;2023-09-18T08:53:36;2.55;;;2.03;;
55316;SDS011;41178;48.956;8.130;2023-09-18T08:58:38;3.33;;;1.67;;
55316;SDS011;41178;48.956;8.130;2023-09-18T09:03:43;3.78;;;2.20;;
55316;SDS011;41178;48.956;8.130;2023-09-18T09:08:46;2.67;;;1.80;;
55316;SDS011;41178;48.956;8.130;2023-09-18T09:13:54;4.47;;;1.52;;
55316;SDS011;41178;48.956;8.130;2023-09-18T09:19:13;5.03;;;1.92;;
55316;SDS011;41178;48.956;8.130;2023-09-18T09:24:15;2.03;;;1.10;;
55316;SDS011;41178;48.956;8.130;2023-09-18T09:29:22;5.05;;;1.50;;
55316;SDS011;41178;48.956;8.130;2023-09-18T09:34:25;4.43;;;1.70;;
55316;SDS011;41178;48.956;8.130;2023-09-18T09:39:28;2.28;;;1.40;;
55316;SDS011;41178;48.956;8.130;2023-09-18T09:44:32;3.08;;;1.73;;
55316;SDS011;41178;48.956;8.130;2023-09-18T09:49:44;1.73;;;1.30;;
55316;SDS011;41178;48.956;8.130;2023-09-18T09:54:47;4.97;;;1.50;;
55316;SDS011;41178;48.956;8.130;2023-09-18T09:59:49;3.65;;;1.85;;
55316;SDS011;41178;48.956;8.130;2023-09-18T10:04:50;2.58;;;1.70;;
55316;SDS011;41178;48.956;8.130;2023-09-18T10:09:53;2.17;;;1.42;;
55316;SDS011;41178;48.956;8.130;2023-09-18T10:14:55;1.73;;;1.40;;
55316;SDS011;41178;48.956;8.130;2023-09-18T10:20:09;2.25;;;1.30;;
55316;SDS011;41178;48.956;8.130;2023-09-18T10:25:25;2.65;;;1.60;;
55316;SDS011;41178;48.956;8.130;2023-09-18T10:30:30;3.53;;;1.52;;
55316;SDS011;41178;48.956;8.130;2023-09-18T10:35:35;3.63;;;1.52;;
55316;SDS011;41178;48.956;8.130;2023-09-18T10:40:38;2.17;;;1.73;;
55316;SDS011;41178;48.956;8.130;2023-09-18T10:45:41;3.03;;;1.48;;
55316;SDS011;41178;48.956;8.130;2023-09-18T10:50:45;2.05;;;1.38;;
55316;SDS011;41178;48.956;8.130;2023-09-18T10:55:48;2.47;;;1.30;;
55316;SDS011;41178;48.956;8.130;2023-09-18T11:06:18;2.60;;;1.33;;
55316;SDS011;41178;48.956;8.130;2023-09-18T11:11:22;2.05;;;1.27;;
55316;SDS011;41178;48.956;8.130;2023-09-18T11:21:30;1.48;;;1.20;;
55316;SDS011;41178;48.956;8.130;2023-09-18T11:26:34;4.05;;;1.60;;
55316;SDS011;41178;48.956;8.130;2023-09-18T11:31:47;2.47;;;1.73;;
55316;SDS011;41178;48.956;8.130;2023-09-18T11:36:49;3.00;;;1.85;;
55316;SDS011;41178;48.956;8.130;2023-09-18T11:41:57;1.65;;;1.40;;
55316;SDS011;41178;48.956;8.130;2023-09-18T11:47:23;2.00;;;1.40;;
55316;SDS011;41178;48.956;8.130;2023-09-18T11:52:27;2.42;;;1.35;;
55316;SDS011;41178;48.956;8.130;2023-09-18T11:57:34;2.45;;;1.30;;
55316;SDS011;41178;48.956;8.130;2023-09-18T12:02:37;2.40;;;1.40;;
55316;SDS011;41178;48.956;8.130;2023-09-18T12:07:45;2.55;;;1.50;;
55316;SDS011;41178;48.956;8.130;2023-09-18T12:12:48;1.40;;;1.20;;
55316;SDS011;41178;48.956;8.130;2023-09-18T12:17:54;2.45;;;1.48;;
55316;SDS011;41178;48.956;8.130;2023-09-18T12:22:57;1.63;;;1.35;;
55316;SDS011;41178;48.956;8.130;2023-09-18T12:27:58;1.30;;;1.00;;
55316;SDS011;41178;48.956;8.130;2023-09-18T12:33:01;2.17;;;1.58;;
55316;SDS011;41178;48.956;8.130;2023-09-18T12:38:13;3.25;;;1.77;;
55316;SDS011;41178;48.956;8.130;2023-09-18T12:43:16;1.63;;;1.38;;
55316;SDS011;41178;48.956;8.130;2023-09-18T12:48:18;1.42;;;1.20;;
55316;SDS011;41178;48.956;8.130;2023-09-18T12:53:21;3.55;;;1.30;;
55316;SDS011;41178;48.956;8.130;2023-09-18T12:58:24;4.25;;;1.60;;
55316;SDS011;41178;48.956;8.130;2023-09-18T13:03:27;1.20;;;1.08;;
55316;SDS011;41178;48.956;8.130;2023-09-18T13:08:28;2.47;;;1.52;;
55316;SDS011;41178;48.956;8.130;2023-09-18T13:13:30;3.35;;;1.58;;
55316;SDS011;41178;48.956;8.130;2023-09-18T13:18:32;3.03;;;1.45;;
55316;SDS011;41178;48.956;8.130;2023-09-18T13:23:34;3.13;;;1.50;;
55316;SDS011;41178;48.956;8.130;2023-09-18T13:28:36;4.45;;;1.50;;
55316;SDS011;41178;48.956;8.130;2023-09-18T13:33:41;2.20;;;1.30;;
55316;SDS011;41178;48.956;8.130;2023-09-18T13:38:46;2.28;;;1.58;;
55316;SDS011;41178;48.956;8.130;2023-09-18T13:43:48;1.50;;;1.40;;
55316;SDS011;41178;48.956;8.130;2023-09-18T13:48:50;3.10;;;1.40;;
55316;SDS011;41178;48.956;8.130;2023-09-18T13:53:52;2.92;;;1.30;;
55316;SDS011;41178;48.956;8.130;2023-09-18T13:58:54;1.33;;;1.20;;
55316;SDS011;41178;48.956;8.130;2023-09-18T14:03:57;1.80;;;1.23;;
55316;SDS011;41178;48.956;8.130;2023-09-18T14:08:58;2.97;;;1.60;;
55316;SDS011;41178;48.956;8.130;2023-09-18T14:14:00;3.05;;;1.40;;
55316;SDS011;41178;48.956;8.130;2023-09-18T14:19:02;2.47;;;1.45;;
55316;SDS011;41178;48.956;8.130;2023-09-18T14:24:04;1.92;;;1.60;;
55316;SDS011;41178;48.956;8.130;2023-09-18T14:29:08;3.90;;;1.30;;
55316;SDS011;41178;48.956;8.130;2023-09-18T14:34:11;1.85;;;1.40;;
55316;SDS011;41178;48.956;8.130;2023-09-18T14:39:12;2.45;;;1.20;;
55316;SDS011;41178;48.956;8.130;2023-09-18T14:44:14;3.20;;;2.10;;
55316;SDS011;41178;48.956;8.130;2023-09-18T14:49:16;3.17;;;1.52;;
55316;SDS011;41178;48.956;8.130;2023-09-18T14:54:18;2.65;;;1.30;;
55316;SDS011;41178;48.956;8.130;2023-09-18T15:05:34;1.40;;;1.20;;
55316;SDS011;41178;48.956;8.130;2023-09-18T15:10:35;2.05;;;1.48;;
55316;SDS011;41178;48.956;8.130;2023-09-18T15:15:37;2.63;;;1.30;;
55316;SDS011;41178;48.956;8.130;2023-09-18T15:20:39;1.40;;;1.00;;
55316;SDS011;41178;48.956;8.130;2023-09-18T15:25:42;1.95;;;1.20;;
55316;SDS011;41178;48.956;8.130;2023-09-18T15:30:45;2.53;;;1.50;;
55316;SDS011;41178;48.956;8.130;2023-09-18T15:35:47;1.20;;;1.10;;
55316;SDS011;41178;48.956;8.130;2023-09-18T15:40:52;1.88;;;1.40;;
55316;SDS011;41178;48.956;8.130;2023-09-18T15:45:53;2.03;;;1.42;;
55316;SDS011;41178;48.956;8.130;2023-09-18T15:50:58;2.33;;;1.30;;
55316;SDS011;41178;48.956;8.130;2023-09-18T15:56:00;1.30;;;1.20;;
55316;SDS011;41178;48.956;8.130;2023-09-18T16:01:02;2.25;;;1.55;;
55316;SDS011;41178;48.956;8.130;2023-09-18T16:06:14;2.03;;;1.35;;
55316;SDS011;41178;48.956;8.130;2023-09-18T16:11:19;3.55;;;1.40;;
55316;SDS011;41178;48.956;8.130;2023-09-18T16:16:21;2.53;;;1.30;;
55316;SDS011;41178;48.956;8.130;2023-09-18T16:21:23;3.17;;;1.30;;
55316;SDS011;41178;48.956;8.130;2023-09-18T16:26:25;1.55;;;1.30;;
55316;SDS011;41178;48.956;8.130;2023-09-18T16:31:26;1.50;;;1.40;;
55316;SDS011;41178;48.956;8.130;2023-09-18T16:36:30;4.07;;;1.30;;
55316;SDS011;41178;48.956;8.130;2023-09-18T16:41:32;1.98;;;1.50;;
55316;SDS011;41178;48.956;8.130;2023-09-18T16:46:34;2.40;;;1.70;;
55316;SDS011;41178;48.956;8.130;2023-09-18T16:51:37;4.55;;;1.50;;
55316;SDS011;41178;48.956;8.130;2023-09-18T16:56:39;5.63;;;2.30;;
55316;SDS011;41178;48.956;8.130;2023-09-18T17:01:41;5.53;;;2.17;;
55316;SDS011;41178;48.956;8.130;2023-09-18T17:06:42;4.88;;;2.13;;
55316;SDS011;41178;48.956;8.130;2023-09-18T17:11:44;4.45;;;1.80;;
55316;SDS011;41178;48.956;8.130;2023-09-18T17:16:46;6.35;;;2.20;;
55316;SDS011;41178;48.956;8.130;2023-09-18T17:21:48;3.78;;;1.73;;
55316;SDS011;41178;48.956;8.130;2023-09-18T17:26:49;4.93;;;2.05;;
55316;SDS011;41178;48.956;8.130;2023-09-18T17:31:51;5.07;;;1.77;;
55316;SDS011;41178;48.956;8.130;2023-09-18T17:36:53;3.13;;;1.80;;
55316;SDS011;41178;48.956;8.130;2023-09-18T17:41:57;2.42;;;1.60;;
55316;SDS011;41178;48.956;8.130;2023-09-18T17:46:58;2.85;;;1.60;;
55316;SDS011;41178;48.956;8.130;2023-09-18T17:52:00;2.58;;;1.60;;
55316;SDS011;41178;48.956;8.130;2023-09-18T17:57:07;6.03;;;2.20;;
55316;SDS011;41178;48.956;8.130;2023-09-18T18:02:09;2.42;;;1.52;;
55316;SDS011;41178;48.956;8.130;2023-09-18T18:07:11;4.43;;;1.75;;
55316;SDS011;41178;48.956;8.130;2023-09-18T18:12:13;3.92;;;1.80;;
55316;SDS011;41178;48.956;8.130;2023-09-18T18:17:15;2.65;;;1.90;;
55316;SDS011;41178;48.956;8.130;2023-09-18T18:22:16;4.03;;;1.50;;
55316;SDS011;41178;48.956;8.130;2023-09-18T18:27:18;1.50;;;1.40;;
55316;SDS011;41178;48.956;8.130;2023-09-18T18:32:21;2.47;;;1.65;;
55316;SDS011;41178;48.956;8.130;2023-09-18T18:37:25;4.07;;;1.50;;
55316;SDS011;41178;48.956;8.130;2023-09-18T18:42:27;2.08;;;1.65;;
55316;SDS011;41178;48.956;8.130;2023-09-18T18:47:30;3.20;;;1.63;;
55316;SDS011;41178;48.956;8.130;2023-09-18T18:52:32;2.95;;;1.73;;
55316;SDS011;41178;48.956;8.130;2023-09-18T18:57:34;6.15;;;1.77;;
55316;SDS011;41178;48.956;8.130;2023-09-18T19:02:39;2.15;;;1.88;;
55316;SDS011;41178;48.956;8.130;2023-09-18T19:07:47;3.13;;;1.70;;
55316;SDS011;41178;48.956;8.130;2023-09-18T19:12:49;2.60;;;1.60;;
55316;SDS011;41178;48.956;8.130;2023-09-18T19:17:51;2.65;;;1.17;;
55316;SDS011;41178;48.956;8.130;2023-09-18T19:22:53;2.35;;;1.90;;
55316;SDS011;41178;48.956;8.130;2023-09-18T19:27:56;3.50;;;1.38;;
55316;SDS011;41178;48.956;8.130;2023-09-18T19:32:57;3.80;;;1.40;;
55316;SDS011;41178;48.956;8.130;2023-09-18T19:37:59;1.73;;;1.40;;
55316;SDS011;41178;48.956;8.130;2023-09-18T19:43:01;1.90;;;1.52;;
55316;SDS011;41178;48.956;8.130;2023-09-18T19:48:04;3.45;;;1.55;;
55316;SDS011;41178;48.956;8.130;2023-09-18T19:53:07;1.75;;;1.42;;
55316;SDS011;41178;48.956;8.130;2023-09-18T19:58:09;1.48;;;1.38;;
55316;SDS011;41178;48.956;8.130;2023-09-18T20:03:11;1.80;;;1.45;;
55316;SDS011;41178;48.956;8.130;2023-09-18T20:08:13;2.22;;;1.40;;
55316;SDS011;41178;48.956;8.130;2023-09-18T20:13:14;3.67;;;1.30;;
55316;SDS011;41178;48.956;8.130;2023-09-18T20:18:16;1.67;;;1.30;;
55316;SDS011;41178;48.956;8.130;2023-09-18T20:23:18;3.15;;;1.50;;
55316;SDS011;41178;48.956;8.130;2023-09-18T20:28:19;1.17;;;1.07;;
55316;SDS011;41178;48.956;8.130;2023-09-18T20:33:21;1.50;;;1.40;;
55316;SDS011;41178;48.956;8.130;2023-09-18T20:38:23;1.63;;;1.10;;
55316;SDS011;41178;48.956;8.130;2023-09-18T20:43:24;1.60;;;1.37;;
55316;SDS011;41178;48.956;8.130;2023-09-18T20:48:27;4.43;;;1.45;;
55316;SDS011;41178;48.956;8.130;2023-09-18T20:53:32;2.83;;;1.50;;
55316;SDS011;41178;48.956;8.130;2023-09-18T20:58:34;1.40;;;1.30;;
55316;SDS011;41178;48.956;8.130;2023-09-18T21:03:38;2.10;;;1.47;;
55316;SDS011;41178;48.956;8.130;2023-09-18T21:08:40;2.20;;;1.50;;
55316;SDS011;41178;48.956;8.130;2023-09-18T21:13:44;1.50;;;1.40;;
55316;SDS011;41178;48.956;8.130;2023-09-18T21:18:49;5.47;;;1.60;;
55316;SDS011;41178;48.956;8.130;2023-09-18T21:23:50;1.40;;;1.30;;
55316;SDS011;41178;48.956;8.130;2023-09-18T21:28:52;2.50;;;1.40;;
55316;SDS011;41178;48.956;8.130;2023-09-18T21:33:54;2.00;;;1.50;;
55316;SDS011;41178;48.956;8.130;2023-09-18T21:38:56;2.00;;;1.57;;
55316;SDS011;41178;48.956;8.130;2023-09-18T21:43:58;4.00;;;1.70;;
55316;SDS011;41178;48.956;8.130;2023-09-18T21:49:00;3.90;;;1.40;;
55316;SDS011;41178;48.956;8.130;2023-09-18T21:54:02;1.60;;;1.47;;
55316;SDS011;41178;48.956;8.130;2023-09-18T21:59:04;2.33;;;1.50;;
55316;SDS011;41178;48.956;8.130;2023-09-18T22:04:07;2.73;;;1.70;;
55316;SDS011;41178;48.956;8.130;2023-09-18T22:09:12;2.13;;;1.40;;
55316;SDS011;41178;48.956;8.130;2023-09-18T22:14:14;2.03;;;1.57;;
55316;SDS011;41178;48.956;8.130;2023-09-18T22:19:18;1.50;;;1.40;;
55316;SDS011;41178;48.956;8.130;2023-09-18T22:24:20;4.47;;;2.23;;
55316;SDS011;41178;48.956;8.130;2023-09-18T22:29:22;1.97;;;1.70;;
55316;SDS011;41178;48.956;8.130;2023-09-18T22:34:24;1.27;;;1.17;;
55316;SDS011;41178;48.956;8.130;2023-09-18T22:55:57;2.60;;;1.70;;
55316;SDS011;41178;48.956;8.130;2023-09-18T23:00:59;1.77;;;1.60;;
55316;SDS011;41178;48.956;8.130;2023-09-18T23:06:04;3.57;;;1.70;;
55316;SDS011;41178;48.956;8.130;2023-09-18T23:11:06;7.43;;;1.73;;
55316;SDS011;41178;48.956;8.130;2023-09-18T23:16:08;3.73;;;1.73;;
55316;SDS011;41178;48.956;8.130;2023-09-18T23:21:10;2.90;;;1.60;;
55316;SDS011;41178;48.956;8.130;2023-09-18T23:26:12;3.57;;;1.60;;
55316;SDS011;41178;48.956;8.130;2023-09-18T23:31:13;3.50;;;1.53;;
55316;SDS011;41178;48.956;8.130;2023-09-18T23:36:17;1.77;;;1.63;;
55316;SDS011;41178;48.956;8.130;2023-09-18T23:41:19;2.43;;;1.50;;
55316;SDS011;41178;48.956;8.130;2023-09-18T23:46:34;2.00;;;1.70;;
55316;SDS011;41178;48.956;8.130;2023-09-18T23:51:36;1.87;;;1.77;;
55316;SDS011;41178;48.956;8.130;2023-09-18T23:56:38;1.20;;;1.20;;
